Morgantown, WV

3:24 PM EDT on July 25, 2017 (GMT -0400)
WVU Evansdale NRCCE | | Change Station

Elev 1115 ft 39.65 °N, 79.97 °W | Updated 3 minutes ago

Overcast
Overcast
70.2 °F
Feels Like 74 °F
N
2.9
Wind Variable Wind from SSW
Gusts 3.1 mph

Today
High -- | Low -- °F
--% Chance of Precip.
Yesterday
High -- | Low -- °F
Precip. -- in
Pressure 30.23 in
Visibility 10.0 miles
Clouds Mostly Cloudy 2600 ft
Overcast 3400 ft
Heat Index 74 °F
Dew Point 60 °F
Humidity 69%
Rainfall 0.02 in
Snow Depth Not available.
6:13 AM 8:39 PM
Waxing Crescent, 8% visible
SPECI KMGW 251920Z VRB03KT 10SM BKN026 OVC034 20/13 A3023 RMK AO2 T02000133
Pressure 30.23 in
Visibility 10.0 miles
Clouds Mostly Cloudy 2600 ft
Overcast 3400 ft
Heat Index 74 °F
Dew Point 60 °F
Humidity 69%
Rainfall 0.02 in
Snow Depth Not available.
6:13 AM 8:39 PM
Waxing Crescent, 8% visible
SPECI KMGW 251920Z VRB03KT 10SM BKN026 OVC034 20/13 A3023 RMK AO2 T02000133

Get Severe Weather Alerts

Thanks for signing up!

Be on the lookout for a verification email in your inbox.

You'll start receiving the daily forecast at 6 AM.

×

10-Day Weather Forecast

Almanac

Astronomy

Jul. 25, 2017 Rise Set
Actual Time
Civil Twilight
Nautical Twilight
Astronomical Twilight
Moon
Length of Visible Light
Length of Day
Tomorrow will be .
, % of the Moon is Illuminated

Today's Extremes

State Highs State Lows

Community

WunderPhotos

Category 6

Welcome to Category 6. This is the collective home for Weather Underground's featured writeups by Dr. Jeff Masters (right), Bob Henson (left), Chris Burt, and other regular contributors.

Nearby

Air Quality

  Air Quality AQ Index Pollutant
Not available.

Snow Depth

Station Depth Elevation

Earthquake Activity

City Distance Mag. Time & Date
Minimum magnitude displayed is 2.5.

Coastal Water Temperatures

Place Temperature

Stations

Nearby Weather Stations

Station Location Temp. Windchill Dew Point Humidity Wind Precip. Elev Updated Type
                   

Watches & Warnings

There are currently no watches in effect.